Time;durP1;ratioP1;P1;durP2;ratioP2;P2;SDS_P1;SDS_P2;PMS_P1;PMS_P2;Temp;Humidity;BMP_temperature;BMP_pressure;BME280_temperature;BME280_humidity;BME280_pressure;Samples;Min_cycle;Max_cycle;Signal;HPM_P1;HPM_P2
2024/04/19 00:00:10;;;;;;;9.63;5.40;;;6.20;99.90;;;;;;5319306;26;20010;-76
2024/04/19 00:02:35;;;;;;;6.82;4.78;;;6.30;99.90;;;;;;5327849;26;20357;-75
2024/04/19 00:05:01;;;;;;;10.45;5.68;;;6.30;99.90;;;;;;5311080;26;20016;-74
2024/04/19 00:07:27;;;;;;;12.75;5.40;;;6.30;99.90;;;;;;5323163;26;20005;-74
2024/04/19 00:09:53;;;;;;;12.65;5.35;;;6.30;99.90;;;;;;5314822;26;20014;-74
2024/04/19 00:12:18;;;;;;;11.65;5.43;;;6.30;99.90;;;;;;5321615;26;20772;-74
2024/04/19 00:14:44;;;;;;;8.93;4.68;;;6.30;99.90;;;;;;5318117;26;20009;-75
2024/04/19 00:17:12;;;;;;;12.23;5.03;;;6.30;99.90;;;;;;5333625;26;20360;-75
2024/04/19 00:19:38;;;;;;;13.27;5.55;;;6.30;99.90;;;;;;5319941;26;20014;-76
2024/04/19 00:22:24;;;;;;;13.73;4.97;;;6.30;99.90;;;;;;5328634;26;20009;-76
2024/04/19 00:24:50;;;;;;;11.60;4.90;;;6.30;99.90;;;;;;5331238;26;20071;-75
2024/04/19 00:27:15;;;;;;;10.25;4.95;;;6.20;99.90;;;;;;5331092;26;20005;-74
2024/04/19 00:29:43;;;;;;;13.13;5.80;;;6.20;99.90;;;;;;5321996;26;20005;-74
2024/04/19 00:32:10;;;;;;;11.05;5.22;;;6.20;99.90;;;;;;5326003;26;20043;-74
2024/04/19 00:34:36;;;;;;;9.98;5.47;;;6.20;99.90;;;;;;5323272;26;20503;-74
2024/04/19 00:37:01;;;;;;;8.18;4.47;;;6.30;99.90;;;;;;5322868;26;20395;-74
2024/04/19 00:39:27;;;;;;;9.20;4.97;;;6.30;99.90;;;;;;5323272;26;20009;-73
2024/04/19 00:41:53;;;;;;;7.45;4.88;;;6.30;99.90;;;;;;5320477;26;20025;-73
2024/04/19 00:44:19;;;;;;;9.82;5.40;;;6.30;99.90;;;;;;5321334;26;20365;-73
2024/04/19 00:46:46;;;;;;;11.77;5.65;;;6.30;99.90;;;;;;5325275;26;20074;-74
2024/04/19 00:49:12;;;;;;;10.65;5.53;;;6.30;99.90;;;;;;5333284;26;20005;-73
2024/04/19 00:51:38;;;;;;;10.05;5.60;;;6.30;99.90;;;;;;5324413;26;20468;-73
2024/04/19 00:54:04;;;;;;;12.50;5.90;;;6.30;99.90;;;;;;5332180;26;20009;-74
2024/04/19 00:56:31;;;;;;;12.05;6.22;;;6.30;99.90;;;;;;5338064;26;20013;-74
2024/04/19 00:58:57;;;;;;;9.95;5.47;;;6.30;99.90;;;;;;5321709;26;20075;-73
2024/04/19 01:01:23;;;;;;;14.35;6.70;;;6.30;99.90;;;;;;5325518;26;20016;-73
2024/04/19 01:03:49;;;;;;;9.32;5.90;;;6.30;99.90;;;;;;5326057;26;20086;-74
2024/04/19 01:06:34;;;;;;;10.20;6.03;;;6.30;99.90;;;;;;5321824;26;20001;-73
2024/04/19 01:09:01;;;;;;;12.43;6.45;;;6.30;99.90;;;;;;5330797;26;20483;-74
2024/04/19 01:11:27;;;;;;;10.35;6.25;;;6.30;99.90;;;;;;5329691;26;20075;-74
2024/04/19 01:13:53;;;;;;;11.88;6.43;;;6.40;99.90;;;;;;5325168;26;20020;-74
2024/04/19 01:16:18;;;;;;;10.65;6.60;;;6.40;99.90;;;;;;5323201;26;20018;-74
2024/04/19 01:18:44;;;;;;;16.77;7.28;;;6.30;99.90;;;;;;5332849;26;20027;-74
2024/04/19 01:21:10;;;;;;;12.27;6.65;;;6.40;99.90;;;;;;5324712;26;20016;-74
2024/04/19 01:23:36;;;;;;;13.90;6.75;;;6.40;99.90;;;;;;5326863;26;20021;-74
2024/04/19 01:26:04;;;;;;;14.40;6.90;;;6.50;99.90;;;;;;5332792;26;20083;-73
2024/04/19 01:28:30;;;;;;;10.90;6.60;;;6.50;99.90;;;;;;5324556;26;20014;-73
2024/04/19 01:30:56;;;;;;;11.40;6.65;;;6.50;99.90;;;;;;5323169;26;20064;-72
2024/04/19 01:33:22;;;;;;;12.70;7.55;;;6.50;99.90;;;;;;5325755;26;20005;-71
2024/04/19 01:35:48;;;;;;;12.15;7.38;;;6.50;99.90;;;;;;5337497;26;20012;-71
2024/04/19 01:38:14;;;;;;;12.73;6.88;;;6.50;99.90;;;;;;5332685;26;20083;-71
2024/04/19 01:40:40;;;;;;;16.83;7.75;;;6.50;99.90;;;;;;5324957;26;20009;-71
2024/04/19 01:43:06;;;;;;;13.95;8.00;;;6.50;99.90;;;;;;5330015;26;20121;-71
2024/04/19 01:45:32;;;;;;;14.25;7.45;;;6.60;99.90;;;;;;5327652;26;20361;-71
2024/04/19 01:47:59;;;;;;;12.38;7.63;;;6.60;99.90;;;;;;5320781;26;20009;-70
2024/04/19 01:50:25;;;;;;;14.35;7.28;;;6.60;99.90;;;;;;5317343;26;20092;-71
2024/04/19 01:52:51;;;;;;;14.48;7.53;;;6.60;99.90;;;;;;5323772;26;20017;-69
2024/04/19 01:55:17;;;;;;;15.10;7.45;;;6.60;99.90;;;;;;5320413;26;20021;-71
2024/04/19 01:57:43;;;;;;;10.07;5.97;;;6.70;99.90;;;;;;5321214;26;20005;-70
2024/04/19 02:00:10;;;;;;;10.38;5.57;;;6.60;99.90;;;;;;5327352;26;20349;-69
2024/04/19 02:02:36;;;;;;;12.65;7.13;;;6.70;99.90;;;;;;5319969;26;20004;-70
2024/04/19 02:05:02;;;;;;;14.48;6.90;;;6.70;99.90;;;;;;5328453;26;20483;-70
2024/04/19 02:07:27;;;;;;;14.40;7.00;;;6.70;99.90;;;;;;5323651;26;20532;-70
2024/04/19 02:09:53;;;;;;;11.95;6.60;;;6.80;99.90;;;;;;5339213;26;20438;-70
2024/04/19 02:12:19;;;;;;;9.93;5.88;;;6.80;99.90;;;;;;5325941;26;20005;-71
2024/04/19 02:14:45;;;;;;;7.38;5.57;;;6.80;99.90;;;;;;5321518;26;20080;-71
2024/04/19 02:17:11;;;;;;;10.52;6.28;;;6.80;99.90;;;;;;5327720;26;20021;-71
2024/04/19 02:19:57;;;;;;;9.73;5.53;;;6.80;99.90;;;;;;5331753;26;20322;-71
2024/04/19 02:22:22;;;;;;;9.73;5.88;;;6.80;99.90;;;;;;5328457;26;20009;-71
2024/04/19 02:24:48;;;;;;;10.30;5.75;;;6.90;99.90;;;;;;5334442;26;20023;-71
2024/04/19 02:32:43;;;;;;;11.00;5.55;;;6.90;99.90;;;;;;5318694;26;20017;-70
2024/04/19 02:35:10;;;;;;;7.75;4.63;;;6.90;99.90;;;;;;5321732;26;20027;-71
2024/04/19 02:37:37;;;;;;;6.45;4.32;;;7.00;99.90;;;;;;5328952;26;20016;-71
2024/04/19 02:40:03;;;;;;;6.00;4.15;;;7.00;99.90;;;;;;5333291;26;20041;-70
2024/04/19 02:42:49;;;;;;;6.85;4.30;;;7.00;99.90;;;;;;5314125;26;20020;-69
2024/04/19 02:45:14;;;;;;;6.22;4.03;;;7.00;99.90;;;;;;5327102;26;20480;-69
2024/04/19 02:47:40;;;;;;;5.05;4.13;;;7.00;99.90;;;;;;5324134;26;20009;-69
2024/04/19 02:50:06;;;;;;;9.70;4.13;;;7.00;99.90;;;;;;5322972;26;20009;-69
2024/04/19 02:52:32;;;;;;;6.65;3.63;;;7.10;99.90;;;;;;5332818;26;20132;-70
2024/04/19 02:54:58;;;;;;;5.47;3.30;;;7.00;99.90;;;;;;5325011;26;20013;-69
2024/04/19 02:57:23;;;;;;;6.05;3.05;;;7.10;99.90;;;;;;5334471;26;20017;-69
2024/04/19 02:59:49;;;;;;;5.15;2.75;;;7.10;99.90;;;;;;5324848;26;20012;-69
2024/04/19 03:02:15;;;;;;;4.13;2.35;;;7.20;99.90;;;;;;5325355;26;20005;-69
2024/04/19 03:04:41;;;;;;;3.05;2.20;;;7.10;99.90;;;;;;5329072;26;20020;-70
2024/04/19 03:07:06;;;;;;;4.22;2.08;;;7.10;99.90;;;;;;5328673;26;20094;-71
2024/04/19 03:09:52;;;;;;;5.70;2.25;;;7.20;99.90;;;;;;5336145;26;20005;-71
2024/04/19 03:12:18;;;;;;;4.07;1.98;;;7.10;99.90;;;;;;5329623;26;20023;-70
2024/04/19 03:14:47;;;;;;;4.88;1.92;;;7.20;99.90;;;;;;5324467;26;20018;-70
2024/04/19 03:17:13;;;;;;;4.55;2.00;;;7.20;99.90;;;;;;5327802;26;20017;-70
2024/04/19 03:19:39;;;;;;;3.83;1.40;;;7.20;99.90;;;;;;5319452;26;20349;-70
2024/04/19 03:22:08;;;;;;;4.32;1.70;;;7.20;99.90;;;;;;5324223;26;20021;-70
2024/04/19 03:24:37;;;;;;;3.78;2.03;;;7.20;99.90;;;;;;5324848;26;20016;-70
2024/04/19 03:27:03;;;;;;;3.83;1.98;;;7.20;99.90;;;;;;5324641;26;20079;-70
2024/04/19 03:29:29;;;;;;;3.42;1.95;;;7.30;99.90;;;;;;5333847;26;20020;-72
2024/04/19 03:31:55;;;;;;;4.60;2.67;;;7.20;99.90;;;;;;5319066;26;20009;-73
2024/04/19 03:34:24;;;;;;;3.35;2.20;;;7.30;99.90;;;;;;5319755;26;20013;-73
2024/04/19 03:36:51;;;;;;;4.45;1.95;;;7.40;99.90;;;;;;5326184;26;20059;-72
2024/04/19 03:39:18;;;;;;;4.53;2.10;;;7.40;99.90;;;;;;5335364;26;20564;-72
2024/04/19 03:41:44;;;;;;;2.58;1.95;;;7.40;99.90;;;;;;5320440;26;20516;-71
2024/04/19 03:46:55;;;;;;;6.78;2.83;;;7.40;99.90;;;;;;5322776;26;20082;-72
2024/04/19 03:49:40;;;;;;;5.18;2.67;;;7.40;99.90;;;;;;5354071;26;20017;-73
2024/04/19 03:52:06;;;;;;;6.50;3.65;;;7.50;99.90;;;;;;5334595;26;20005;-73
2024/04/19 03:54:32;;;;;;;5.75;3.22;;;7.50;99.90;;;;;;5321931;26;20013;-73
2024/04/19 03:56:58;;;;;;;2.65;2.40;;;7.50;99.90;;;;;;5322933;26;20084;-72
2024/04/19 03:59:34;;;;;;;3.33;2.85;;;7.60;99.90;;;;;;5328850;26;20009;-72
2024/04/19 04:02:01;;;;;;;5.65;2.60;;;7.60;99.90;;;;;;5329432;26;20634;-73
2024/04/19 04:04:29;;;;;;;7.72;2.90;;;7.60;99.90;;;;;;5330771;26;20443;-72
2024/04/19 04:06:54;;;;;;;8.60;2.67;;;7.70;99.90;;;;;;5328912;26;20009;-73
2024/04/19 04:09:20;;;;;;;4.57;2.38;;;7.80;99.90;;;;;;5325983;26;20454;-72
2024/04/19 04:11:46;;;;;;;6.82;2.90;;;7.90;99.90;;;;;;5331782;26;20016;-72
2024/04/19 04:14:12;;;;;;;8.13;2.92;;;8.00;99.90;;;;;;5315998;26;20005;-72
2024/04/19 04:16:37;;;;;;;10.20;2.90;;;8.10;99.90;;;;;;5324592;26;20018;-72
2024/04/19 04:19:04;;;;;;;10.57;3.45;;;8.10;99.90;;;;;;5330010;26;20017;-74
2024/04/19 04:21:30;;;;;;;9.10;3.00;;;8.10;99.90;;;;;;5323304;26;20010;-74
2024/04/19 04:23:55;;;;;;;10.68;2.83;;;8.20;99.90;;;;;;5321437;26;20009;-74
2024/04/19 04:26:21;;;;;;;7.00;2.20;;;8.20;99.90;;;;;;5324516;26;20390;-75
2024/04/19 04:28:48;;;;;;;10.23;3.33;;;8.20;99.90;;;;;;5325545;26;20021;-73
2024/04/19 04:31:13;;;;;;;9.85;3.10;;;8.20;99.90;;;;;;5331085;26;20437;-71
2024/04/19 04:33:39;;;;;;;6.82;2.85;;;8.30;99.90;;;;;;5327380;26;20022;-72
2024/04/19 04:36:05;;;;;;;7.95;2.38;;;8.30;99.90;;;;;;5332516;26;20005;-71
2024/04/19 04:38:33;;;;;;;9.00;2.17;;;8.30;99.90;;;;;;5331171;26;20382;-71
2024/04/19 04:40:59;;;;;;;5.40;2.13;;;8.40;99.90;;;;;;5336888;26;20461;-71
2024/04/19 04:43:24;;;;;;;11.00;2.65;;;8.40;99.90;;;;;;5334414;26;20009;-71
2024/04/19 04:45:51;;;;;;;8.20;2.60;;;8.40;99.90;;;;;;5332651;26;20462;-72
2024/04/19 04:48:17;;;;;;;8.20;2.05;;;8.30;99.90;;;;;;5328565;26;20017;-73
2024/04/19 04:50:43;;;;;;;11.95;2.50;;;8.40;99.90;;;;;;5336104;26;20729;-74
2024/04/19 04:53:10;;;;;;;7.57;1.80;;;8.40;99.90;;;;;;5324466;26;20020;-75
2024/04/19 04:55:36;;;;;;;7.85;2.08;;;8.40;99.90;;;;;;5334695;26;20151;-76
2024/04/19 04:58:01;;;;;;;9.68;2.08;;;8.50;99.90;;;;;;5332379;26;20020;-75
2024/04/19 05:00:30;;;;;;;8.75;2.10;;;8.40;99.90;;;;;;5325644;26;20020;-75
2024/04/19 05:02:59;;;;;;;11.82;2.22;;;8.40;99.90;;;;;;5322528;26;20390;-75
2024/04/19 05:05:25;;;;;;;14.82;3.03;;;8.40;99.90;;;;;;5328085;26;20020;-76
2024/04/19 05:07:51;;;;;;;13.35;2.92;;;8.40;99.90;;;;;;5328752;26;20013;-75
2024/04/19 05:10:18;;;;;;;9.23;2.10;;;8.40;99.90;;;;;;5316093;26;20024;-75
2024/04/19 05:12:44;;;;;;;14.90;2.95;;;8.40;99.90;;;;;;5331365;26;20009;-75
2024/04/19 05:15:09;;;;;;;17.52;3.28;;;8.50;99.90;;;;;;5323059;26;20087;-75
2024/04/19 05:17:38;;;;;;;15.65;3.00;;;8.40;99.90;;;;;;5328309;26;20005;-75
2024/04/19 05:20:05;;;;;;;25.35;3.20;;;8.40;99.90;;;;;;5336644;26;20470;-74
2024/04/19 05:22:33;;;;;;;18.02;3.00;;;8.40;99.90;;;;;;5333327;26;20352;-74
2024/04/19 05:24:58;;;;;;;16.73;3.80;;;8.50;99.90;;;;;;5316935;26;20020;-74
2024/04/19 05:27:24;;;;;;;14.48;2.42;;;8.40;99.90;;;;;;5321323;26;20006;-74
2024/04/19 05:29:50;;;;;;;22.58;2.75;;;8.40;99.90;;;;;;5324836;26;20763;-73
2024/04/19 05:32:16;;;;;;;16.08;3.50;;;8.50;99.90;;;;;;5326514;26;20051;-73
2024/04/19 05:34:42;;;;;;;17.67;2.83;;;8.50;99.90;;;;;;5325252;26;20048;-73
2024/04/19 05:37:08;;;;;;;21.77;3.08;;;8.50;99.90;;;;;;5328483;26;20465;-73
2024/04/19 05:39:34;;;;;;;17.13;2.40;;;8.50;99.90;;;;;;5327005;26;20001;-73
2024/04/19 05:42:00;;;;;;;18.58;3.00;;;8.60;99.90;;;;;;5325492;26;20476;-73
2024/04/19 05:44:31;;;;;;;15.15;2.80;;;8.60;99.90;;;;;;5333253;26;20088;-73
2024/04/19 05:47:00;;;;;;;17.70;2.53;;;8.60;99.90;;;;;;5320685;26;20009;-73
2024/04/19 05:49:27;;;;;;;14.68;2.35;;;8.60;99.90;;;;;;5332049;26;20210;-72
2024/04/19 05:51:53;;;;;;;21.77;3.15;;;8.70;99.90;;;;;;5336959;26;20009;-73
2024/04/19 05:54:19;;;;;;;15.20;2.67;;;8.60;99.90;;;;;;5319797;26;20028;-73
2024/04/19 05:56:44;;;;;;;25.30;3.05;;;8.70;99.90;;;;;;5328119;26;20009;-73
2024/04/19 05:59:10;;;;;;;209.40;177.70;;;8.70;99.90;;;;;;5316127;26;20342;-72
2024/04/19 06:01:36;;;;;;;65.57;49.60;;;8.80;99.90;;;;;;5328077;26;20001;-73
2024/04/19 06:04:02;;;;;;;21.63;2.92;;;8.80;99.90;;;;;;5332374;26;20116;-73
2024/04/19 06:06:28;;;;;;;14.15;2.15;;;8.80;99.90;;;;;;5335499;26;20019;-73
2024/04/19 06:08:54;;;;;;;16.25;2.38;;;8.90;99.90;;;;;;5330439;26;20342;-73
2024/04/19 06:11:19;;;;;;;14.30;2.67;;;8.90;99.90;;;;;;5322446;26;20034;-73
2024/04/19 06:13:47;;;;;;;26.65;2.60;;;8.90;99.90;;;;;;5328822;26;20104;-73
2024/04/19 06:16:13;;;;;;;14.85;2.50;;;8.90;99.90;;;;;;5322775;26;20098;-73
2024/04/19 06:18:39;;;;;;;18.35;2.40;;;9.00;99.90;;;;;;5331710;26;20005;-73
2024/04/19 06:21:05;;;;;;;18.20;2.47;;;9.00;99.90;;;;;;5329928;26;20414;-73
2024/04/19 06:23:31;;;;;;;56.85;35.05;;;9.00;99.90;;;;;;5327341;26;20005;-73
2024/04/19 06:26:04;;;;;;;30.73;12.02;;;9.00;99.90;;;;;;5325109;26;20082;-72
2024/04/19 06:28:31;;;;;;;26.15;3.25;;;9.00;99.90;;;;;;5345618;26;20017;-73
2024/04/19 06:31:09;;;;;;;20.45;2.65;;;9.00;99.90;;;;;;5331371;26;20013;-73
2024/04/19 06:33:35;;;;;;;22.30;2.30;;;9.10;99.90;;;;;;5329682;26;20013;-73
2024/04/19 06:36:01;;;;;;;21.17;2.45;;;9.10;99.90;;;;;;5332116;26;20005;-73
2024/04/19 06:38:27;;;;;;;17.90;2.38;;;9.10;99.90;;;;;;5331702;26;20166;-73
2024/04/19 06:40:53;;;;;;;13.48;2.08;;;9.20;99.90;;;;;;5326805;26;20005;-72
2024/04/19 06:43:19;;;;;;;18.35;2.08;;;9.20;99.90;;;;;;5316639;26;20019;-72
2024/04/19 06:45:45;;;;;;;21.10;2.55;;;9.20;99.90;;;;;;5328509;26;20148;-72
2024/04/19 06:48:11;;;;;;;16.20;1.67;;;9.30;99.90;;;;;;5316710;26;20022;-72
2024/04/19 06:50:37;;;;;;;15.60;2.08;;;9.20;99.90;;;;;;5327665;26;20019;-72
2024/04/19 06:53:03;;;;;;;17.20;2.30;;;9.30;99.90;;;;;;5322768;26;20016;-72
2024/04/19 06:55:29;;;;;;;33.53;14.73;;;9.30;99.90;;;;;;5326453;26;20034;-72
2024/04/19 06:57:58;;;;;;;13.63;2.47;;;9.30;99.90;;;;;;5315963;26;20020;-72
2024/04/19 07:00:24;;;;;;;20.58;2.83;;;9.40;99.90;;;;;;5328089;26;20017;-72
2024/04/19 07:02:50;;;;;;;14.52;2.03;;;9.50;99.90;;;;;;5319629;26;20028;-72
2024/04/19 07:05:17;;;;;;;13.23;1.75;;;9.50;99.90;;;;;;5325516;26;20075;-72
2024/04/19 07:07:48;;;;;;;14.30;2.25;;;9.50;99.90;;;;;;5322992;26;20010;-72
2024/04/19 07:10:14;;;;;;;17.27;2.20;;;9.40;99.90;;;;;;5335631;26;20021;-72
2024/04/19 07:12:40;;;;;;;15.45;1.70;;;9.40;99.90;;;;;;5325921;26;20326;-72
2024/04/19 07:15:07;;;;;;;13.02;1.75;;;9.40;99.90;;;;;;5324103;26;20123;-72
2024/04/19 07:17:34;;;;;;;17.85;2.80;;;9.30;99.90;;;;;;5329026;26;20086;-71
2024/04/19 07:20:00;;;;;;;13.85;1.77;;;9.30;99.90;;;;;;5332524;26;20005;-71
2024/04/19 07:22:26;;;;;;;17.90;1.42;;;9.20;99.90;;;;;;5331784;26;20049;-71
2024/04/19 07:24:52;;;;;;;16.00;2.03;;;9.20;99.90;;;;;;5321349;26;20083;-71
2024/04/19 07:27:17;;;;;;;10.35;1.73;;;9.20;99.90;;;;;;5335017;26;20527;-72
2024/04/19 07:29:43;;;;;;;11.90;1.45;;;9.30;99.90;;;;;;5328789;26;20457;-71
2024/04/19 07:32:09;;;;;;;15.73;1.60;;;9.30;99.90;;;;;;5331628;26;20009;-71
2024/04/19 07:34:35;;;;;;;15.38;1.73;;;9.30;99.90;;;;;;5322443;26;20016;-72
2024/04/19 07:37:01;;;;;;;10.02;1.52;;;9.40;99.90;;;;;;5333150;26;20343;-72
2024/04/19 07:39:27;;;;;;;16.17;2.25;;;9.40;99.90;;;;;;5323656;26;20049;-72
2024/04/19 07:41:55;;;;;;;8.93;1.33;;;9.50;99.90;;;;;;5322113;26;20075;-72
2024/04/19 07:44:21;;;;;;;11.70;1.63;;;9.50;99.90;;;;;;5318684;26;20020;-72
2024/04/19 07:46:47;;;;;;;15.23;1.88;;;9.60;99.90;;;;;;5326867;26;20010;-72
2024/04/19 07:49:13;;;;;;;14.25;1.33;;;9.70;99.90;;;;;;5336343;26;20008;-71
2024/04/19 07:51:39;;;;;;;13.70;1.70;;;9.70;99.90;;;;;;5333285;26;20024;-71
2024/04/19 07:54:05;;;;;;;7.43;1.38;;;9.70;99.90;;;;;;5330819;26;20009;-71
2024/04/19 07:56:32;;;;;;;11.27;1.13;;;9.70;99.90;;;;;;5331609;26;20357;-72
2024/04/19 07:58:58;;;;;;;11.85;1.45;;;9.60;99.90;;;;;;5325527;26;20042;-71
2024/04/19 08:01:24;;;;;;;10.80;1.05;;;9.60;99.90;;;;;;5331342;26;20008;-71
2024/04/19 08:03:50;;;;;;;10.73;1.38;;;9.70;99.90;;;;;;5331336;26;20445;-71
2024/04/19 08:06:16;;;;;;;8.23;1.85;;;9.70;99.90;;;;;;5328768;26;20013;-70
2024/04/19 08:08:45;;;;;;;10.40;1.30;;;9.70;99.90;;;;;;5330236;26;20412;-72
2024/04/19 08:11:11;;;;;;;10.60;1.20;;;9.70;99.90;;;;;;5331555;26;20020;-72
2024/04/19 08:13:40;;;;;;;12.25;0.93;;;9.70;99.90;;;;;;5334568;26;20016;-71
2024/04/19 08:16:06;;;;;;;11.63;2.30;;;9.70;99.90;;;;;;5322102;26;20082;-71
2024/04/19 08:18:32;;;;;;;10.88;1.20;;;9.90;99.90;;;;;;5327462;26;20132;-71
2024/04/19 08:20:58;;;;;;;10.48;1.13;;;10.00;99.90;;;;;;5325461;26;20401;-71
2024/04/19 08:23:25;;;;;;;11.75;1.17;;;10.10;99.90;;;;;;5336720;26;20114;-71
2024/04/19 08:25:52;;;;;;;11.05;1.25;;;10.20;99.90;;;;;;5324979;26;20423;-71
2024/04/19 08:28:17;;;;;;;9.30;1.15;;;10.60;99.90;;;;;;5336232;26;20059;-72
2024/04/19 08:30:43;;;;;;;9.20;1.30;;;10.90;99.90;;;;;;5327158;26;20012;-72
2024/04/19 08:33:09;;;;;;;9.80;1.23;;;11.10;99.90;;;;;;5334917;26;20039;-71
2024/04/19 08:35:35;;;;;;;9.23;1.20;;;11.30;99.90;;;;;;5333942;26;20032;-72
2024/04/19 08:38:01;;;;;;;11.80;2.65;;;11.30;99.90;;;;;;5328949;26;20016;-72
2024/04/19 08:40:29;;;;;;;6.47;1.00;;;11.30;99.90;;;;;;5327786;26;20005;-72
2024/04/19 08:42:58;;;;;;;7.65;1.02;;;11.20;99.90;;;;;;5330433;26;20422;-72
2024/04/19 08:45:27;;;;;;;7.82;0.98;;;11.20;99.90;;;;;;5334599;26;20009;-72
2024/04/19 08:47:54;;;;;;;9.25;1.85;;;11.10;99.90;;;;;;5332727;26;20016;-72
2024/04/19 08:50:21;;;;;;;9.82;1.05;;;11.10;99.90;;;;;;5327893;26;20020;-72
2024/04/19 08:52:48;;;;;;;10.25;1.20;;;11.10;99.90;;;;;;5330539;26;20024;-72
2024/04/19 08:55:14;;;;;;;5.38;1.00;;;10.90;99.90;;;;;;5327006;26;20028;-72
2024/04/19 08:57:42;;;;;;;6.13;0.85;;;10.80;99.90;;;;;;5322270;26;20092;-72
2024/04/19 09:00:11;;;;;;;7.20;1.08;;;10.70;99.90;;;;;;5339397;26;20384;-71
2024/04/19 09:02:37;;;;;;;6.15;0.88;;;10.60;99.90;;;;;;5325869;26;20020;-71
2024/04/19 09:05:06;;;;;;;12.15;1.60;;;10.50;99.90;;;;;;5328061;26;20018;-72
2024/04/19 09:07:32;;;;;;;25.98;17.15;;;10.40;99.90;;;;;;5332870;26;20020;-72
2024/04/19 09:09:58;;;;;;;9.75;2.75;;;10.30;99.90;;;;;;5324079;26;20009;-72
2024/04/19 09:12:24;;;;;;;7.95;1.58;;;10.50;99.90;;;;;;5334023;26;20021;-72
2024/04/19 09:14:50;;;;;;;75.22;56.78;;;10.90;99.90;;;;;;5326765;26;20096;-72
2024/04/19 09:17:17;;;;;;;32.80;28.40;;;11.20;99.90;;;;;;5328028;26;20024;-72
2024/04/19 09:19:43;;;;;;;7.47;1.08;;;11.30;99.90;;;;;;5318738;26;20358;-72
2024/04/19 09:22:09;;;;;;;8.10;1.23;;;11.20;99.90;;;;;;5329377;26;20010;-72
2024/04/19 09:24:35;;;;;;;7.90;1.15;;;11.10;99.90;;;;;;5323970;26;20469;-72
2024/04/19 09:27:04;;;;;;;7.28;1.05;;;11.00;99.90;;;;;;5331969;26;20012;-72
2024/04/19 09:29:30;;;;;;;6.43;0.90;;;11.00;99.90;;;;;;5328924;26;20021;-72
2024/04/19 09:31:57;;;;;;;5.15;0.70;;;10.90;99.90;;;;;;5332246;26;20443;-72
2024/04/19 09:34:22;;;;;;;7.53;1.27;;;10.70;99.90;;;;;;5320472;26;20006;-71
2024/04/19 09:36:50;;;;;;;7.55;1.20;;;10.60;99.90;;;;;;5355104;26;20248;-71
2024/04/19 09:39:17;;;;;;;7.22;1.27;;;10.40;99.90;;;;;;5331670;26;20020;-71
2024/04/19 09:41:45;;;;;;;7.22;0.90;;;10.30;99.90;;;;;;5327738;26;20074;-71
2024/04/19 09:44:15;;;;;;;3.42;0.65;;;10.20;99.90;;;;;;5322058;26;20473;-71
2024/04/19 09:46:48;;;;;;;92.18;74.03;;;10.00;99.90;;;;;;5331814;26;20009;-71
2024/04/19 09:49:16;;;;;;;7.75;1.33;;;10.00;99.90;;;;;;5329058;26;20009;-71
2024/04/19 09:51:46;;;;;;;7.07;1.25;;;9.80;99.90;;;;;;5326160;26;20001;-72
2024/04/19 09:54:14;;;;;;;7.68;0.95;;;9.70;99.90;;;;;;5324870;26;20382;-73
2024/04/19 09:56:57;;;;;;;7.82;0.82;;;9.70;99.90;;;;;;5335229;26;20016;-71
2024/04/19 09:59:26;;;;;;;5.03;0.77;;;9.70;99.90;;;;;;5329457;26;20017;-71
2024/04/19 10:01:54;;;;;;;5.75;0.60;;;9.70;99.90;;;;;;5330060;26;20012;-71
2024/04/19 10:04:22;;;;;;;5.03;0.55;;;9.90;99.90;;;;;;5326539;26;20009;-71
2024/04/19 10:06:48;;;;;;;3.03;0.30;;;10.10;99.90;;;;;;5322315;26;20398;-71
2024/04/19 10:09:20;;;;;;;4.38;0.30;;;10.30;99.90;;;;;;5328163;26;19997;-71
2024/04/19 10:11:48;;;;;;;2.58;0.40;;;10.50;99.90;;;;;;5325868;26;20088;-70
2024/04/19 10:14:16;;;;;;;2.70;0.22;;;10.50;99.90;;;;;;5323176;26;20498;-70
2024/04/19 10:16:42;;;;;;;4.22;0.40;;;10.40;99.90;;;;;;5321597;26;20088;-71
2024/04/19 10:19:11;;;;;;;3.13;0.40;;;10.40;99.90;;;;;;5323042;26;20016;-71
2024/04/19 10:21:39;;;;;;;2.03;0.20;;;10.50;99.90;;;;;;5326488;26;20010;-71
2024/04/19 10:24:22;;;;;;;1.55;0.15;;;10.60;99.90;;;;;;5324245;26;20033;-71
2024/04/19 10:26:59;;;;;;;1.63;0.10;;;10.60;99.90;;;;;;5323645;26;20016;-71
2024/04/19 10:29:29;;;;;;;1.63;0.20;;;10.80;99.90;;;;;;5327726;26;20017;-70
2024/04/19 10:31:56;;;;;;;2.03;0.10;;;11.00;99.90;;;;;;5329350;26;20005;-70
2024/04/19 10:34:23;;;;;;;1.48;0.20;;;11.20;99.90;;;;;;5332431;26;20544;-70
2024/04/19 10:36:51;;;;;;;1.65;0.20;;;11.20;99.90;;;;;;5329137;26;20005;-71
2024/04/19 10:39:18;;;;;;;2.47;0.30;;;11.10;99.90;;;;;;5331797;26;20010;-71
2024/04/19 10:41:55;;;;;;;2.03;0.25;;;10.90;99.90;;;;;;5320101;26;20010;-74
2024/04/19 10:44:22;;;;;;;2.13;0.43;;;10.50;99.90;;;;;;5334141;26;20027;-74
2024/04/19 10:46:51;;;;;;;1.95;0.43;;;10.10;99.90;;;;;;5329756;26;20017;-76
2024/04/19 10:49:20;;;;;;;2.97;0.40;;;9.70;99.90;;;;;;5333705;26;20023;-73
2024/04/19 10:51:50;;;;;;;3.95;0.40;;;9.30;99.90;;;;;;5328364;26;20025;-74
2024/04/19 10:54:17;;;;;;;3.60;0.43;;;9.00;99.90;;;;;;5325076;26;20020;-77
2024/04/19 10:56:42;;;;;;;2.47;0.30;;;8.80;99.90;;;;;;5326215;26;20371;-76
2024/04/19 10:59:08;;;;;;;3.22;0.30;;;8.60;99.90;;;;;;5335092;26;20000;-77
2024/04/19 11:01:38;;;;;;;3.22;0.40;;;8.40;99.90;;;;;;5315873;26;20035;-78
2024/04/19 11:04:04;;;;;;;3.10;0.40;;;8.30;99.90;;;;;;5333921;26;20016;-77
2024/04/19 11:06:30;;;;;;;3.67;0.52;;;8.10;99.90;;;;;;5313372;26;20576;-77
2024/04/19 11:08:56;;;;;;;5.90;0.50;;;8.10;99.90;;;;;;5321167;26;20037;-78
2024/04/19 11:11:22;;;;;;;4.03;0.38;;;8.00;99.90;;;;;;5328542;26;20078;-77
2024/04/19 11:13:48;;;;;;;3.10;0.30;;;7.90;99.90;;;;;;5331631;26;20247;-77
2024/04/19 11:16:14;;;;;;;4.10;0.80;;;8.00;99.90;;;;;;5321882;26;20045;-77
2024/04/19 11:18:40;;;;;;;3.28;0.50;;;8.10;99.90;;;;;;5332617;26;20143;-77
2024/04/19 11:21:06;;;;;;;5.07;0.52;;;8.20;99.90;;;;;;5323521;26;20010;-78
2024/04/19 11:23:32;;;;;;;5.95;0.55;;;8.50;99.90;;;;;;5329355;26;20046;-77
2024/04/19 11:25:58;;;;;;;6.13;0.70;;;8.90;99.90;;;;;;5324434;26;20009;-78
2024/04/19 11:28:24;;;;;;;5.18;0.70;;;9.40;99.90;;;;;;5335281;26;20005;-76
2024/04/19 11:30:49;;;;;;;5.45;0.85;;;9.90;99.90;;;;;;5322856;26;20280;-76
2024/04/19 11:33:16;;;;;;;5.22;0.82;;;10.20;99.90;;;;;;5320500;26;20013;-76
2024/04/19 11:35:43;;;;;;;8.95;0.77;;;10.30;99.90;;;;;;5323457;26;20487;-76
2024/04/19 11:38:16;;;;;;;8.82;0.85;;;10.30;99.90;;;;;;5318080;26;20027;-76
2024/04/19 11:40:44;;;;;;;9.32;1.50;;;10.20;99.90;;;;;;5321530;26;20467;-75
2024/04/19 11:43:13;;;;;;;9.23;1.05;;;10.00;99.90;;;;;;5323060;26;20007;-74
2024/04/19 11:45:49;;;;;;;5.78;0.77;;;9.60;99.90;;;;;;5322546;26;20020;-77
2024/04/19 11:48:26;;;;;;;4.65;1.10;;;9.30;99.90;;;;;;5317408;26;20009;-79
2024/04/19 11:50:57;;;;;;;5.57;1.27;;;9.10;99.90;;;;;;5323834;26;20089;-78
2024/04/19 11:53:23;;;;;;;4.45;0.93;;;9.10;99.90;;;;;;5310955;26;20033;-77
2024/04/19 11:55:50;;;;;;;6.25;1.10;;;9.60;99.90;;;;;;5324201;26;20016;-76
2024/04/19 11:58:19;;;;;;;6.15;1.65;;;10.00;99.90;;;;;;5315544;26;20018;-76
2024/04/19 12:00:45;;;;;;;9.85;2.92;;;10.60;99.90;;;;;;5324285;26;20471;-76
2024/04/19 12:03:11;;;;;;;10.95;1.90;;;11.40;99.90;;;;;;5321232;26;20025;-75
2024/04/19 12:05:39;;;;;;;10.70;2.55;;;11.80;99.90;;;;;;5322261;26;20087;-75
2024/04/19 12:08:05;;;;;;;13.18;2.50;;;11.80;99.90;;;;;;5323451;26;20092;-74
2024/04/19 12:10:31;;;;;;;10.55;2.45;;;11.40;99.90;;;;;;5329091;26;20417;-74
2024/04/19 12:12:57;;;;;;;10.60;2.70;;;11.40;99.90;;;;;;5328755;26;20091;-74
2024/04/19 12:15:23;;;;;;;8.98;2.20;;;11.90;99.90;;;;;;5325828;26;20479;-74
2024/04/19 12:17:49;;;;;;;7.20;2.25;;;12.50;99.90;;;;;;5327216;26;20014;-73
2024/04/19 12:20:15;;;;;;;8.35;3.08;;;12.80;99.90;;;;;;5327231;26;20124;-73
2024/04/19 12:22:40;;;;;;;9.05;2.85;;;12.20;99.90;;;;;;5331571;26;20021;-71
2024/04/19 12:25:06;;;;;;;6.05;1.52;;;11.20;99.90;;;;;;5323795;26;20004;-74
2024/04/19 12:27:32;;;;;;;5.63;1.20;;;10.40;99.90;;;;;;5325872;26;20360;-74
2024/04/19 12:29:58;;;;;;;7.03;1.67;;;9.70;99.90;;;;;;5332039;26;20078;-74
2024/04/19 12:32:24;;;;;;;16.20;2.97;;;9.50;99.90;;;;;;5328054;26;20488;-75
2024/04/19 12:34:50;;;;;;;13.27;2.90;;;9.50;99.90;;;;;;5321823;26;19997;-74
2024/04/19 12:37:16;;;;;;;10.90;2.92;;;9.30;99.90;;;;;;5320970;26;20025;-74
2024/04/19 12:39:42;;;;;;;11.45;2.85;;;9.50;99.90;;;;;;5318653;26;20005;-74
2024/04/19 12:42:11;;;;;;;13.30;3.55;;;10.30;99.90;;;;;;5323413;26;20001;-74
2024/04/19 12:44:37;;;;;;;10.52;2.53;;;11.10;99.90;;;;;;5320500;26;20028;-73
2024/04/19 12:47:03;;;;;;;13.90;2.78;;;11.90;99.90;;;;;;5313050;26;20001;-73
2024/04/19 12:49:29;;;;;;;10.38;1.92;;;12.40;99.90;;;;;;5331347;26;20009;-74
2024/04/19 12:51:57;;;;;;;28.67;14.13;;;12.30;99.90;;;;;;5320758;26;20096;-73
2024/04/19 12:54:23;;;;;;;17.83;4.80;;;11.90;99.90;;;;;;5326935;26;20015;-73